createdAt,value
2022-12-11T00:01:13.429Z,20.60
2022-12-11T00:03:42.248Z,22.30
2022-12-11T00:06:13.935Z,21.43
2022-12-11T00:08:42.350Z,21.07
2022-12-11T00:11:11.388Z,20.30
2022-12-11T00:13:39.913Z,20.50
2022-12-11T00:16:08.881Z,19.20
2022-12-11T00:18:37.833Z,17.83
2022-12-11T00:21:09.756Z,18.47
2022-12-11T00:23:39.799Z,19.10
2022-12-11T00:26:09.435Z,19.90
2022-12-11T00:28:37.833Z,18.47
2022-12-11T00:31:07.870Z,18.93
2022-12-11T00:33:36.501Z,19.97
2022-12-11T00:36:05.254Z,19.10
2022-12-11T00:38:33.812Z,18.77
2022-12-11T00:41:03.623Z,19.40
2022-12-11T00:43:32.504Z,18.90
2022-12-11T00:46:00.893Z,17.13
2022-12-11T00:48:29.455Z,17.80
2022-12-11T00:50:57.963Z,16.37
2022-12-11T00:53:26.683Z,14.80
2022-12-11T00:55:55.034Z,13.27
2022-12-11T00:58:24.863Z,12.50
2022-12-11T01:00:53.802Z,12.17
2022-12-11T01:03:22.307Z,12.57
2022-12-11T01:05:54.257Z,11.83
2022-12-11T01:08:23.062Z,11.50
2022-12-11T01:10:50.485Z,11.20
2022-12-11T01:13:19.014Z,11.37
2022-12-11T01:15:48.750Z,10.57
2022-12-11T01:18:17.108Z,9.03
2022-12-11T01:20:45.471Z,10.47
2022-12-11T01:23:14.601Z,10.63
2022-12-11T01:25:43.392Z,9.83
2022-12-11T01:28:12.137Z,10.67
2022-12-11T01:30:43.202Z,8.93
2022-12-11T01:33:13.629Z,9.27
2022-12-11T01:35:42.444Z,11.40
2022-12-11T01:38:11.439Z,11.13
2022-12-11T01:40:39.972Z,10.13
2022-12-11T01:43:12.151Z,11.00
2022-12-11T01:45:42.050Z,11.13
2022-12-11T01:48:13.859Z,9.67
2022-12-11T01:50:45.792Z,9.50
2022-12-11T01:53:19.075Z,9.97
2022-12-11T01:55:48.584Z,10.33
2022-12-11T01:58:17.887Z,10.47
2022-12-11T02:00:46.376Z,9.70
2022-12-11T02:03:16.209Z,9.50
2022-12-11T02:05:44.569Z,10.50
2022-12-11T02:08:13.224Z,11.03
2022-12-11T02:10:54.658Z,10.03
2022-12-11T02:13:27.513Z,10.00
2022-12-11T02:16:00.969Z,10.00
2022-12-11T02:18:36.335Z,9.67
2022-12-11T02:21:08.706Z,9.07
2022-12-11T02:24:06.695Z,9.23
2022-12-11T02:26:56.629Z,10.10
2022-12-11T02:29:31.399Z,9.93
2022-12-11T02:32:03.866Z,9.43
2022-12-11T02:34:35.961Z,10.60
2022-12-11T02:37:07.315Z,10.17
2022-12-11T02:39:37.903Z,8.57
2022-12-11T02:42:06.716Z,9.60
2022-12-11T02:44:37.374Z,10.53
2022-12-11T02:47:07.505Z,10.30
2022-12-11T02:49:35.937Z,9.77
2022-12-11T02:52:05.377Z,9.97
2022-12-11T02:54:35.864Z,8.97
2022-12-11T02:57:07.363Z,9.60
2022-12-11T02:59:39.533Z,10.30
2022-12-11T03:02:08.317Z,10.20
2022-12-11T03:04:37.864Z,10.50
2022-12-11T03:07:12.252Z,9.13
2022-12-11T03:09:41.188Z,10.20
2022-12-11T03:12:11.468Z,9.20
2022-12-11T03:14:42.370Z,9.67
2022-12-11T03:17:15.702Z,10.03
2022-12-11T03:19:49.656Z,9.70
2022-12-11T03:22:22.163Z,9.43
2022-12-11T03:24:53.188Z,8.77
2022-12-11T03:27:27.626Z,9.00
2022-12-11T03:30:00.384Z,9.13
2022-12-11T03:32:32.145Z,8.73
2022-12-11T03:35:05.355Z,9.57
2022-12-11T03:37:37.311Z,9.10
2022-12-11T03:40:09.323Z,7.80
2022-12-11T03:42:39.277Z,9.40
2022-12-11T03:45:10.281Z,8.67
2022-12-11T03:47:39.997Z,8.57
2022-12-11T03:50:11.283Z,8.43
2022-12-11T03:52:45.747Z,8.57
2022-12-11T03:55:16.342Z,8.63
2022-12-11T03:57:45.269Z,9.00
2022-12-11T04:00:19.095Z,8.53
2022-12-11T04:03:13.293Z,8.10
2022-12-11T04:05:43.050Z,9.07
2022-12-11T04:08:12.211Z,7.90
2022-12-11T04:10:41.299Z,8.40
2022-12-11T04:13:10.247Z,8.63
2022-12-11T04:15:40.343Z,8.60
2022-12-11T04:18:26.956Z,8.13
2022-12-11T04:21:13.593Z,8.67
2022-12-11T04:23:59.436Z,8.30
2022-12-11T04:26:27.750Z,8.73
2022-12-11T04:28:56.289Z,8.30
2022-12-11T04:31:26.270Z,8.47
2022-12-11T04:33:54.885Z,8.47
2022-12-11T04:36:23.471Z,8.57
2022-12-11T04:38:51.845Z,8.20
2022-12-11T04:41:20.556Z,8.23
2022-12-11T04:43:48.933Z,8.57
2022-12-11T04:46:19.280Z,8.07
2022-12-11T04:48:55.430Z,9.47
2022-12-11T04:51:24.023Z,9.00
2022-12-11T04:53:52.297Z,8.07
2022-12-11T04:56:21.344Z,8.07
2022-12-11T04:58:50.002Z,8.40
2022-12-11T05:01:20.468Z,8.60
2022-12-11T05:03:50.736Z,9.40
2022-12-11T05:06:19.209Z,8.93
2022-12-11T05:08:47.595Z,9.57
2022-12-11T05:11:17.507Z,8.40
2022-12-11T05:13:46.559Z,10.07
2022-12-11T05:16:17.121Z,9.80
2022-12-11T05:18:45.769Z,8.47
2022-12-11T05:21:16.809Z,8.07
2022-12-11T05:23:45.339Z,8.73
2022-12-11T05:26:16.174Z,9.57
2022-12-11T05:28:44.746Z,8.40
2022-12-11T05:31:15.495Z,9.60
2022-12-11T05:33:44.180Z,10.03
2022-12-11T05:36:18.331Z,8.53
2022-12-11T05:38:47.061Z,8.40
2022-12-11T05:41:17.208Z,8.33
2022-12-11T05:43:45.993Z,8.30
2022-12-11T05:46:17.026Z,8.67
2022-12-11T05:48:46.535Z,9.03
2022-12-11T05:51:17.595Z,9.20
2022-12-11T05:53:47.385Z,9.50
2022-12-11T05:56:17.620Z,9.10
2022-12-11T05:58:48.419Z,8.97
2022-12-11T06:01:19.228Z,8.03
2022-12-11T06:03:47.759Z,8.63
2022-12-11T06:06:17.763Z,8.57
2022-12-11T06:08:46.172Z,8.40
2022-12-11T06:11:18.386Z,8.30
2022-12-11T06:13:50.032Z,8.93
2022-12-11T06:16:18.567Z,8.57
2022-12-11T06:18:47.026Z,9.03
2022-12-11T06:21:18.245Z,8.77
2022-12-11T06:23:49.698Z,8.90
2022-12-11T06:26:19.064Z,9.00
2022-12-11T06:28:47.891Z,8.37
2022-12-11T06:31:16.754Z,8.67
2022-12-11T06:33:45.727Z,8.47
2022-12-11T06:36:16.189Z,8.87
2022-12-11T06:38:46.536Z,8.20
2022-12-11T06:41:16.041Z,8.10
2022-12-11T06:43:45.677Z,8.17
2022-12-11T06:46:18.279Z,8.50
2022-12-11T06:48:47.724Z,8.93
2022-12-11T06:51:18.463Z,8.47
2022-12-11T06:53:52.955Z,7.70
2022-12-11T06:56:22.529Z,9.57
2022-12-11T06:58:51.946Z,9.23
2022-12-11T07:01:22.570Z,8.37
2022-12-11T07:03:53.489Z,8.13
2022-12-11T07:06:21.950Z,8.60
2022-12-11T07:08:51.945Z,7.20
2022-12-11T07:11:21.471Z,8.87
2022-12-11T07:13:50.188Z,8.57
2022-12-11T07:16:19.256Z,8.80
2022-12-11T07:18:50.097Z,8.17
2022-12-11T07:21:19.051Z,8.70
2022-12-11T07:23:47.925Z,9.17
2022-12-11T07:26:19.520Z,9.17
2022-12-11T07:28:48.019Z,8.57
2022-12-11T07:31:18.324Z,8.77
2022-12-11T07:33:47.384Z,8.93
2022-12-11T07:36:16.469Z,9.77
2022-12-11T07:38:44.835Z,8.30
2022-12-11T07:41:14.814Z,8.53
2022-12-11T07:43:45.438Z,9.97
2022-12-11T07:46:16.293Z,8.97
2022-12-11T07:48:46.500Z,8.93
2022-12-11T07:51:17.267Z,8.53
2022-12-11T07:53:46.367Z,9.10
2022-12-11T07:56:14.706Z,8.60
2022-12-11T07:58:44.848Z,8.67
2022-12-11T08:01:14.769Z,9.53
2022-12-11T08:03:43.631Z,9.97
2022-12-11T08:06:12.935Z,9.50
2022-12-11T08:08:42.096Z,8.83
2022-12-11T08:11:12.567Z,9.43
2022-12-11T08:13:41.451Z,8.40
2022-12-11T08:16:13.673Z,9.30
2022-12-11T08:18:43.068Z,9.80
2022-12-11T08:21:13.550Z,9.80
2022-12-11T08:23:42.244Z,9.43
2022-12-11T08:26:13.201Z,9.77
2022-12-11T08:28:41.679Z,9.40
2022-12-11T08:31:12.965Z,10.20
2022-12-11T08:33:41.985Z,9.33
2022-12-11T08:36:12.051Z,10.17
2022-12-11T08:38:41.467Z,10.80
2022-12-11T08:41:10.846Z,11.00
2022-12-11T08:43:39.325Z,10.40
2022-12-11T08:46:08.239Z,10.90
2022-12-11T08:48:39.450Z,10.87
2022-12-11T08:51:10.379Z,10.47
2022-12-11T08:53:38.976Z,10.27
2022-12-11T08:56:09.442Z,9.93
2022-12-11T08:58:38.607Z,9.73
2022-12-11T09:01:10.780Z,10.30
2022-12-11T09:03:41.542Z,9.63
2022-12-11T09:06:12.361Z,10.87
2022-12-11T09:08:40.834Z,11.20
2022-12-11T09:11:10.754Z,11.27
2022-12-11T09:13:40.020Z,10.17
2022-12-11T09:16:10.448Z,10.17
2022-12-11T09:18:40.938Z,10.47
2022-12-11T09:21:11.035Z,9.90
2022-12-11T09:23:39.472Z,10.37
2022-12-11T09:26:11.091Z,11.03
2022-12-11T09:28:45.719Z,11.20
2022-12-11T09:31:17.003Z,9.17
2022-12-11T09:33:47.569Z,10.20
2022-12-11T09:36:15.922Z,10.37
2022-12-11T09:38:44.848Z,10.70
2022-12-11T09:41:31.369Z,11.27
2022-12-11T09:44:04.429Z,10.67
2022-12-11T09:46:34.450Z,11.00
2022-12-11T09:49:06.186Z,11.23
2022-12-11T09:51:43.793Z,11.33
2022-12-11T09:54:14.490Z,9.67
2022-12-11T09:56:48.044Z,9.97
2022-12-11T09:59:25.235Z,10.30
2022-12-11T10:01:59.041Z,9.13
2022-12-11T10:04:39.612Z,9.17
2022-12-11T10:07:13.485Z,9.40
2022-12-11T10:09:48.949Z,9.07
2022-12-11T10:12:28.907Z,9.17
2022-12-11T10:15:19.625Z,8.93
2022-12-11T10:17:48.994Z,8.90
2022-12-11T10:20:24.938Z,9.30
2022-12-11T10:22:54.453Z,9.93
2022-12-11T10:25:26.640Z,9.37
2022-12-11T10:27:55.316Z,9.10
2022-12-11T10:30:26.915Z,9.70
2022-12-11T10:33:13.277Z,9.33
2022-12-11T10:35:47.042Z,10.37
2022-12-11T10:38:17.320Z,8.80
2022-12-11T10:40:48.910Z,9.80
2022-12-11T10:43:17.304Z,8.60
2022-12-11T10:45:52.759Z,10.57
2022-12-11T10:48:22.112Z,8.83
2022-12-11T10:51:01.477Z,8.73
2022-12-11T10:53:30.423Z,8.30
2022-12-11T10:55:59.891Z,9.10
2022-12-11T10:58:33.831Z,9.03
2022-12-11T11:01:07.409Z,8.40
2022-12-11T11:03:37.722Z,9.00
2022-12-11T11:06:15.979Z,8.73
2022-12-11T11:08:45.642Z,9.17
2022-12-11T11:11:26.945Z,8.97
2022-12-11T11:14:07.254Z,8.13
2022-12-11T11:16:38.035Z,8.50
2022-12-11T11:19:06.887Z,8.17
2022-12-11T11:21:37.235Z,9.10
2022-12-11T11:24:05.792Z,9.37
2022-12-11T11:27:04.748Z,8.97
2022-12-11T11:29:28.777Z,9.73
2022-12-11T11:31:57.374Z,9.70
2022-12-11T11:34:26.307Z,9.67
2022-12-11T11:37:05.513Z,10.73
2022-12-11T11:39:37.283Z,10.50
2022-12-11T11:42:11.863Z,10.57
2022-12-11T11:44:43.241Z,10.47
2022-12-11T11:47:15.671Z,11.93
2022-12-11T11:49:54.251Z,11.03
2022-12-11T11:52:30.799Z,10.50
2022-12-11T11:55:06.693Z,10.80
2022-12-11T11:57:38.560Z,10.77
2022-12-11T12:00:11.508Z,10.33
2022-12-11T12:02:43.177Z,10.60
2022-12-11T12:05:14.129Z,11.17
2022-12-11T12:07:49.465Z,10.63
2022-12-11T12:10:21.735Z,11.93
2022-12-11T12:12:55.438Z,11.63
2022-12-11T12:15:33.766Z,11.93
2022-12-11T12:18:12.422Z,12.10
2022-12-11T12:20:46.970Z,11.33
2022-12-11T12:23:39.711Z,11.80
2022-12-11T12:26:12.791Z,11.43
2022-12-11T12:28:46.305Z,12.40
2022-12-11T12:31:23.167Z,11.60
2022-12-11T12:33:58.750Z,12.10
2022-12-11T12:36:34.085Z,13.57
2022-12-11T12:39:06.973Z,12.43
2022-12-11T12:41:40.371Z,12.93
2022-12-11T12:44:15.058Z,10.60
2022-12-11T12:46:57.912Z,11.80
2022-12-11T12:49:39.707Z,11.17
2022-12-11T12:52:11.700Z,8.00
2022-12-11T12:54:42.421Z,7.50
2022-12-11T12:57:11.095Z,6.53
2022-12-11T12:59:40.846Z,6.60
2022-12-11T13:02:15.679Z,6.07
2022-12-11T13:05:01.736Z,4.47
2022-12-11T13:07:32.730Z,5.13
2022-12-11T13:10:06.655Z,5.40
2022-12-11T13:12:42.739Z,5.17
2022-12-11T13:15:36.457Z,5.00
2022-12-11T13:18:28.149Z,5.97
2022-12-11T13:20:56.511Z,5.30
2022-12-11T13:23:29.660Z,4.33
2022-12-11T13:26:00.463Z,4.80
2022-12-11T13:28:34.938Z,4.20
2022-12-11T13:31:09.566Z,4.00
2022-12-11T13:33:43.886Z,4.37
2022-12-11T13:36:28.431Z,4.77
2022-12-11T13:38:59.240Z,3.80
2022-12-11T13:41:29.510Z,4.33
2022-12-11T13:43:59.350Z,4.43
2022-12-11T13:46:30.880Z,4.23
2022-12-11T13:49:01.905Z,4.33
2022-12-11T13:51:31.945Z,4.40
2022-12-11T13:54:17.089Z,4.93
2022-12-11T13:56:59.099Z,4.37
2022-12-11T13:59:30.702Z,4.87
2022-12-11T14:02:01.688Z,4.70
2022-12-11T14:04:30.796Z,4.27
2022-12-11T14:07:00.185Z,4.60
2022-12-11T14:09:29.591Z,4.33
2022-12-11T14:11:59.500Z,4.47
2022-12-11T14:14:36.101Z,4.57
2022-12-11T14:17:04.919Z,4.70
2022-12-11T14:19:33.659Z,4.33
2022-12-11T14:22:03.283Z,4.77
2022-12-11T14:24:32.504Z,4.67
2022-12-11T14:27:04.763Z,4.27
2022-12-11T14:29:34.954Z,3.57
2022-12-11T14:32:05.491Z,4.43
2022-12-11T14:34:37.345Z,4.20
2022-12-11T14:37:07.557Z,3.93
2022-12-11T14:39:38.998Z,4.50
2022-12-11T14:42:13.031Z,3.90
2022-12-11T14:44:48.594Z,4.30
2022-12-11T14:47:18.837Z,4.07
2022-12-11T14:49:49.828Z,5.80
2022-12-11T14:52:20.246Z,5.07
2022-12-11T14:54:52.734Z,5.10
2022-12-11T14:57:25.824Z,4.63
2022-12-11T14:59:55.769Z,5.20
2022-12-11T15:02:30.762Z,4.70
2022-12-11T15:05:02.932Z,5.70
2022-12-11T15:07:31.403Z,4.90
2022-12-11T15:09:59.925Z,6.13
2022-12-11T15:12:29.748Z,6.07
2022-12-11T15:15:00.840Z,6.50
2022-12-11T15:17:33.044Z,6.40
2022-12-11T15:20:07.312Z,6.60
2022-12-11T15:22:37.031Z,6.00
2022-12-11T15:25:06.092Z,5.57
2022-12-11T15:27:37.321Z,5.60
2022-12-11T15:30:22.085Z,5.93
2022-12-11T15:32:50.345Z,6.53
2022-12-11T15:35:24.277Z,6.50
2022-12-11T15:37:54.956Z,6.70
2022-12-11T15:40:23.468Z,6.97
2022-12-11T15:42:54.964Z,8.17
2022-12-11T15:45:25.145Z,7.83
2022-12-11T15:47:53.943Z,7.57
2022-12-11T15:50:24.146Z,8.17
2022-12-11T15:52:53.792Z,8.73
2022-12-11T15:55:23.695Z,7.90
2022-12-11T15:57:55.665Z,7.67
2022-12-11T16:00:26.324Z,7.70
2022-12-11T16:02:54.840Z,9.07
2022-12-11T16:05:23.445Z,9.50
2022-12-11T16:07:53.993Z,10.50
2022-12-11T16:10:23.045Z,10.40
2022-12-11T16:12:53.233Z,10.97
2022-12-11T16:15:23.823Z,9.53
2022-12-11T16:18:02.060Z,9.30
2022-12-11T16:20:32.077Z,9.57
2022-12-11T16:23:00.948Z,9.80
2022-12-11T16:25:29.709Z,9.93
2022-12-11T16:28:01.214Z,10.87
2022-12-11T16:30:30.604Z,10.37
2022-12-11T16:32:58.987Z,10.60
2022-12-11T16:35:27.520Z,10.23
2022-12-11T16:37:56.228Z,9.87
2022-12-11T16:40:25.139Z,9.40
2022-12-11T16:42:54.195Z,7.47
2022-12-11T16:45:25.787Z,10.90
2022-12-11T16:47:54.539Z,7.63
2022-12-11T16:50:23.641Z,7.53
2022-12-11T16:52:52.238Z,7.70
2022-12-11T16:55:22.319Z,8.60
2022-12-11T16:57:50.944Z,9.20
2022-12-11T17:00:19.819Z,8.77
2022-12-11T17:02:50.023Z,9.40
2022-12-11T17:05:18.541Z,7.13
2022-12-11T17:07:47.114Z,6.47
2022-12-11T17:10:15.721Z,7.77
2022-12-11T17:12:44.218Z,7.73
2022-12-11T17:15:13.205Z,7.80
2022-12-11T17:17:43.213Z,7.43
2022-12-11T17:20:13.356Z,7.07
2022-12-11T17:22:41.797Z,7.73
2022-12-11T17:25:10.977Z,8.77
2022-12-11T17:27:39.659Z,8.00
2022-12-11T17:30:09.736Z,6.80
2022-12-11T17:32:38.053Z,7.90
2022-12-11T17:35:07.602Z,8.53
2022-12-11T17:37:37.323Z,6.80
2022-12-11T17:40:06.885Z,6.33
2022-12-11T17:42:35.473Z,6.30
2022-12-11T17:45:04.003Z,5.00
2022-12-11T17:47:32.988Z,4.27
2022-12-11T17:50:01.365Z,4.10
2022-12-11T17:52:34.093Z,4.70
2022-12-11T17:55:04.745Z,4.57
2022-12-11T17:57:33.275Z,4.53
2022-12-11T18:00:01.859Z,4.23
2022-12-11T18:02:30.097Z,3.47
2022-12-11T18:04:58.448Z,3.90
2022-12-11T18:07:26.785Z,3.77
2022-12-11T18:09:55.153Z,4.30
2022-12-11T18:12:25.175Z,5.40
2022-12-11T18:14:53.769Z,4.60
2022-12-11T18:17:22.913Z,5.30
2022-12-11T18:19:51.495Z,4.93
2022-12-11T18:22:22.665Z,6.10
2022-12-11T18:24:51.610Z,5.70
2022-12-11T18:27:19.979Z,5.50
2022-12-11T18:29:49.740Z,6.07
2022-12-11T18:32:18.206Z,5.30
2022-12-11T18:34:47.087Z,4.50
2022-12-11T18:37:15.416Z,4.00
2022-12-11T18:39:43.962Z,4.50
2022-12-11T18:45:02.762Z,4.27
2022-12-11T18:47:31.214Z,3.80
2022-12-11T18:50:05.621Z,3.23
2022-12-11T18:52:36.115Z,2.83
2022-12-11T18:55:04.895Z,2.70
2022-12-11T18:57:33.371Z,3.93
2022-12-11T19:00:07.458Z,3.50
2022-12-11T19:02:36.247Z,3.20
2022-12-11T19:05:05.288Z,3.27
2022-12-11T19:07:33.810Z,3.57
2022-12-11T19:10:02.129Z,3.37
2022-12-11T19:12:30.402Z,3.27
2022-12-11T19:14:58.804Z,3.33
2022-12-11T19:17:28.820Z,3.30
2022-12-11T19:19:57.363Z,3.93
2022-12-11T19:22:25.851Z,3.47
2022-12-11T19:24:54.332Z,4.03
2022-12-11T19:27:22.730Z,4.30
2022-12-11T19:29:51.063Z,4.53
2022-12-11T19:32:19.580Z,4.10
2022-12-11T19:34:49.464Z,3.97
2022-12-11T19:37:18.065Z,4.50
2022-12-11T19:39:46.778Z,4.47
2022-12-11T19:42:15.305Z,5.30
2022-12-11T19:44:43.849Z,4.10
2022-12-11T19:47:12.263Z,4.40
2022-12-11T19:49:40.852Z,4.83
2022-12-11T19:52:10.698Z,3.83
2022-12-11T19:54:39.097Z,4.87
2022-12-11T19:57:08.053Z,5.13
2022-12-11T19:59:36.310Z,4.70
2022-12-11T20:02:04.751Z,4.73
2022-12-11T20:04:33.270Z,4.73
2022-12-11T20:07:01.910Z,4.60
2022-12-11T20:09:33.674Z,4.73
2022-12-11T20:12:03.190Z,4.60
2022-12-11T20:14:32.520Z,5.73
2022-12-11T20:17:12.000Z,4.83
2022-12-11T20:19:41.593Z,4.70
2022-12-11T20:22:13.367Z,4.87
2022-12-11T20:24:43.047Z,4.83
2022-12-11T20:27:12.611Z,4.97
2022-12-11T20:29:41.183Z,4.60
2022-12-11T20:32:11.583Z,4.30
2022-12-11T20:34:40.382Z,4.20
2022-12-11T20:37:09.063Z,4.33
2022-12-11T20:39:38.140Z,4.30
2022-12-11T20:42:10.760Z,3.77
2022-12-11T20:44:42.706Z,4.40
2022-12-11T20:47:14.628Z,3.97
2022-12-11T20:49:43.670Z,4.30
2022-12-11T20:52:12.122Z,4.10
2022-12-11T20:54:40.478Z,4.07
2022-12-11T20:57:10.451Z,4.80
2022-12-11T20:59:39.310Z,4.20
2022-12-11T21:02:08.452Z,4.47
2022-12-11T21:04:39.627Z,4.37
2022-12-11T21:07:08.869Z,4.23
2022-12-11T21:09:38.062Z,4.77
2022-12-11T21:12:07.820Z,4.07
2022-12-11T21:14:38.868Z,4.60
2022-12-11T21:17:07.407Z,4.90
2022-12-11T21:19:35.778Z,4.87
2022-12-11T21:22:04.648Z,4.30
2022-12-11T21:24:33.227Z,5.40
2022-12-11T21:27:01.732Z,5.43
2022-12-11T21:29:30.523Z,4.43
2022-12-11T21:32:00.856Z,5.40
2022-12-11T21:34:29.938Z,5.27
2022-12-11T21:36:58.609Z,5.47
2022-12-11T21:39:30.875Z,5.77
2022-12-11T21:42:01.948Z,6.13
2022-12-11T21:47:22.438Z,6.37
2022-12-11T21:49:51.025Z,5.77
2022-12-11T21:52:19.782Z,5.63
2022-12-11T21:54:49.325Z,6.07
2022-12-11T21:57:22.753Z,5.90
2022-12-11T21:59:54.593Z,5.53
2022-12-11T22:02:24.414Z,5.40
2022-12-11T22:04:52.904Z,5.50
2022-12-11T22:07:21.378Z,5.53
2022-12-11T22:09:49.877Z,4.73
2022-12-11T22:12:23.333Z,5.33
2022-12-11T22:14:51.860Z,6.10
2022-12-11T22:17:20.187Z,6.10
2022-12-11T22:19:51.874Z,5.80
2022-12-11T22:22:20.307Z,6.33
2022-12-11T22:24:49.025Z,5.60
2022-12-11T22:27:23.300Z,5.30
2022-12-11T22:29:52.453Z,5.33
2022-12-11T22:32:21.124Z,6.37
2022-12-11T22:34:51.163Z,6.07
2022-12-11T22:37:19.621Z,5.70
2022-12-11T22:39:48.195Z,5.40
2022-12-11T22:42:16.508Z,5.67
2022-12-11T22:44:44.901Z,6.30
2022-12-11T22:47:13.820Z,6.00
2022-12-11T22:49:42.281Z,5.73
2022-12-11T22:52:12.041Z,6.07
2022-12-11T22:54:41.149Z,6.57
2022-12-11T22:57:09.791Z,5.73
2022-12-11T22:59:38.400Z,5.10
2022-12-11T23:02:07.103Z,5.67
2022-12-11T23:04:35.566Z,5.40
2022-12-11T23:07:04.094Z,5.33
2022-12-11T23:09:33.886Z,5.87
2022-12-11T23:12:02.730Z,5.13
2022-12-11T23:14:31.121Z,5.43
2022-12-11T23:16:59.713Z,6.20
2022-12-11T23:19:28.124Z,5.27
2022-12-11T23:21:56.633Z,5.37
2022-12-11T23:24:25.051Z,5.70
2022-12-11T23:26:54.881Z,6.50
2022-12-11T23:29:23.374Z,5.47
2022-12-11T23:31:52.132Z,6.60
2022-12-11T23:34:20.545Z,6.17
2022-12-11T23:36:48.993Z,6.07
2022-12-11T23:39:17.899Z,6.20
2022-12-11T23:41:46.356Z,6.40
2022-12-11T23:44:16.137Z,6.30
2022-12-11T23:46:44.986Z,5.83
2022-12-11T23:49:13.301Z,7.23
2022-12-11T23:51:43.760Z,6.50
2022-12-11T23:54:12.140Z,6.57
2022-12-11T23:56:40.537Z,6.73
2022-12-11T23:59:09.044Z,7.57
